createdAt,value
2022-10-13T00:00:43.930Z,14.27
2022-10-13T00:03:11.431Z,9.00
2022-10-13T00:05:47.564Z,12.90
2022-10-13T00:08:18.969Z,12.32
2022-10-13T00:10:47.337Z,8.95
2022-10-13T00:13:15.225Z,10.38
2022-10-13T00:15:44.846Z,9.07
2022-10-13T00:18:11.618Z,7.43
2022-10-13T00:20:46.417Z,15.75
2022-10-13T00:23:16.360Z,11.70
2022-10-13T00:25:45.014Z,7.25
2022-10-13T00:28:12.324Z,10.13
2022-10-13T00:30:39.635Z,14.70
2022-10-13T00:33:06.689Z,14.48
2022-10-13T00:35:34.196Z,11.48
2022-10-13T00:38:00.974Z,8.43
2022-10-13T00:40:27.746Z,14.75
2022-10-13T00:42:54.511Z,12.93
2022-10-13T00:45:28.186Z,8.23
2022-10-13T00:48:02.160Z,14.80
2022-10-13T00:50:37.547Z,8.55
2022-10-13T00:53:05.846Z,9.52
2022-10-13T00:55:36.419Z,9.07
2022-10-13T00:58:06.276Z,9.55
2022-10-13T01:00:34.628Z,11.90
2022-10-13T01:03:04.800Z,10.07
2022-10-13T01:05:31.554Z,10.27
2022-10-13T01:07:59.439Z,11.32
2022-10-13T01:11:04.540Z,8.23
2022-10-13T01:13:50.955Z,10.32
2022-10-13T01:16:20.436Z,14.35
2022-10-13T01:19:01.472Z,8.68
2022-10-13T01:21:47.447Z,8.73
2022-10-13T01:24:41.508Z,6.22
2022-10-13T01:27:19.650Z,18.15
2022-10-13T01:30:23.561Z,14.05
2022-10-13T01:32:58.729Z,14.35
2022-10-13T01:35:31.927Z,8.45
2022-10-13T01:38:07.533Z,13.88
2022-10-13T01:40:59.355Z,7.80
2022-10-13T01:43:36.476Z,11.60
2022-10-13T01:46:13.763Z,8.55
2022-10-13T01:48:44.067Z,13.75
2022-10-13T01:51:16.400Z,7.68
2022-10-13T01:53:45.087Z,9.50
2022-10-13T01:56:12.121Z,5.97
2022-10-13T01:58:39.408Z,12.65
2022-10-13T02:01:13.416Z,9.52
2022-10-13T02:04:05.048Z,15.48
2022-10-13T02:06:41.904Z,14.02
2022-10-13T02:09:21.495Z,9.40
2022-10-13T02:11:57.377Z,9.77
2022-10-13T02:14:30.436Z,11.43
2022-10-13T02:17:02.682Z,10.55
2022-10-13T02:19:30.855Z,12.43
2022-10-13T02:21:58.840Z,7.72
2022-10-13T02:24:26.097Z,10.82
2022-10-13T02:26:53.795Z,9.30
2022-10-13T02:29:21.537Z,11.20
2022-10-13T02:31:48.355Z,11.70
2022-10-13T02:34:15.753Z,14.00
2022-10-13T02:36:42.561Z,12.65
2022-10-13T02:39:10.812Z,10.68
2022-10-13T02:41:38.079Z,9.77
2022-10-13T02:44:05.928Z,10.75
2022-10-13T02:46:32.859Z,15.77
2022-10-13T02:48:59.620Z,12.68
2022-10-13T02:51:26.653Z,9.52
2022-10-13T02:53:53.445Z,12.60
2022-10-13T02:56:20.259Z,11.55
2022-10-13T02:58:47.051Z,14.68
2022-10-13T03:01:15.843Z,9.65
2022-10-13T03:03:43.377Z,14.82
2022-10-13T03:06:10.272Z,10.82
2022-10-13T03:08:37.047Z,13.77
2022-10-13T03:11:03.864Z,10.70
2022-10-13T03:13:30.716Z,15.43
2022-10-13T03:15:57.547Z,10.95
2022-10-13T03:18:24.525Z,10.07
2022-10-13T03:21:03.740Z,9.38
2022-10-13T03:23:31.843Z,14.05
2022-10-13T03:25:59.035Z,9.30
2022-10-13T03:28:25.858Z,11.90
2022-10-13T03:31:07.917Z,11.32
2022-10-13T03:33:34.971Z,14.32
2022-10-13T03:36:04.063Z,8.77
2022-10-13T03:38:32.285Z,8.75
2022-10-13T03:41:07.411Z,10.45
2022-10-13T03:43:35.025Z,7.63
2022-10-13T03:46:02.956Z,10.63
2022-10-13T03:48:29.880Z,12.40
2022-10-13T03:50:56.878Z,9.13
2022-10-13T03:53:24.495Z,11.82
2022-10-13T03:55:53.356Z,7.57
2022-10-13T03:58:20.976Z,10.93
2022-10-13T04:00:48.228Z,8.98
2022-10-13T04:03:15.598Z,7.90
2022-10-13T04:05:42.799Z,7.72
2022-10-13T04:08:10.079Z,11.68
2022-10-13T04:10:37.023Z,14.48
2022-10-13T04:13:04.051Z,10.82
2022-10-13T04:15:31.119Z,12.77
2022-10-13T04:17:57.896Z,10.15
2022-10-13T04:20:24.730Z,6.72
2022-10-13T04:22:51.913Z,10.32
2022-10-13T04:25:18.851Z,11.35
2022-10-13T04:27:47.984Z,11.45
2022-10-13T04:30:14.899Z,10.65
2022-10-13T04:32:41.659Z,10.38
2022-10-13T04:35:08.548Z,12.10
2022-10-13T04:37:35.316Z,14.85
2022-10-13T04:40:02.213Z,9.68
2022-10-13T04:42:29.290Z,12.63
2022-10-13T04:44:56.038Z,9.93
2022-10-13T04:47:22.773Z,10.18
2022-10-13T04:49:49.872Z,10.18
2022-10-13T04:52:16.811Z,13.60
2022-10-13T04:54:43.711Z,11.43
2022-10-13T04:57:10.467Z,14.60
2022-10-13T04:59:37.576Z,10.90
2022-10-13T05:02:04.428Z,9.73
2022-10-13T05:04:31.201Z,14.50
2022-10-13T05:07:17.841Z,10.68
2022-10-13T05:09:44.853Z,12.07
2022-10-13T05:12:11.835Z,13.57
2022-10-13T05:14:38.701Z,16.00
2022-10-13T05:17:05.488Z,13.80
2022-10-13T05:19:32.256Z,12.07
2022-10-13T05:21:59.084Z,15.95
2022-10-13T05:24:36.526Z,9.35
2022-10-13T05:27:09.400Z,15.13
2022-10-13T05:29:36.746Z,12.88
2022-10-13T05:32:04.444Z,10.30
2022-10-13T05:34:32.603Z,10.95
2022-10-13T05:37:00.351Z,12.48
2022-10-13T05:39:27.249Z,8.98
2022-10-13T05:41:54.082Z,13.02
2022-10-13T05:44:21.713Z,13.32
2022-10-13T05:46:48.623Z,9.52
2022-10-13T05:49:15.867Z,11.98
2022-10-13T05:51:48.866Z,11.20
2022-10-13T05:54:31.470Z,11.35
2022-10-13T05:57:30.839Z,12.35
2022-10-13T06:00:01.932Z,10.65
2022-10-13T06:02:35.046Z,15.32
2022-10-13T06:05:04.460Z,15.32
2022-10-13T06:07:31.899Z,10.48
2022-10-13T06:09:59.302Z,14.55
2022-10-13T06:12:26.091Z,18.85
2022-10-13T06:14:53.092Z,10.25
2022-10-13T06:17:19.885Z,11.57
2022-10-13T06:19:46.790Z,12.65
2022-10-13T06:22:13.631Z,12.80
2022-10-13T06:24:40.431Z,18.58
2022-10-13T06:27:07.317Z,11.93
2022-10-13T06:29:34.139Z,7.88
2022-10-13T06:32:00.948Z,12.50
2022-10-13T06:34:27.876Z,8.13
2022-10-13T06:36:54.726Z,10.95
2022-10-13T06:39:21.636Z,13.55
2022-10-13T06:41:49.635Z,9.25
2022-10-13T06:44:16.497Z,11.60
2022-10-13T06:46:43.243Z,10.13
2022-10-13T06:49:10.386Z,10.18
2022-10-13T06:51:37.410Z,14.38
2022-10-13T06:54:04.287Z,15.13
2022-10-13T06:56:31.186Z,10.52
2022-10-13T06:58:58.014Z,14.10
2022-10-13T07:01:24.780Z,13.82
2022-10-13T07:03:52.101Z,13.43
2022-10-13T07:06:19.072Z,16.05
2022-10-13T07:08:45.850Z,13.95
2022-10-13T07:11:16.198Z,10.00
2022-10-13T07:13:46.528Z,17.55
2022-10-13T07:16:14.625Z,17.08
2022-10-13T07:18:41.502Z,23.70
2022-10-13T07:21:08.328Z,17.00
2022-10-13T07:23:35.171Z,20.17
2022-10-13T07:26:02.146Z,12.73
2022-10-13T07:28:29.246Z,14.25
2022-10-13T07:30:56.094Z,15.45
2022-10-13T07:33:22.869Z,18.08
2022-10-13T07:35:49.851Z,13.07
2022-10-13T07:38:16.631Z,14.18
2022-10-13T07:40:44.581Z,18.33
2022-10-13T07:43:11.335Z,12.48
2022-10-13T07:45:38.183Z,19.02
2022-10-13T07:48:05.147Z,13.95
2022-10-13T07:50:32.054Z,19.15
2022-10-13T07:52:58.962Z,15.05
2022-10-13T07:55:25.764Z,22.15
2022-10-13T07:57:52.652Z,14.00
2022-10-13T08:00:19.536Z,17.20
2022-10-13T08:02:50.293Z,11.55
2022-10-13T08:05:17.173Z,13.55
2022-10-13T08:07:44.001Z,16.08
2022-10-13T08:10:10.831Z,27.25
2022-10-13T08:12:37.821Z,13.70
2022-10-13T08:15:06.491Z,15.35
2022-10-13T08:17:33.568Z,15.18
2022-10-13T08:20:00.459Z,25.15
2022-10-13T08:22:28.454Z,16.02
2022-10-13T08:24:56.026Z,12.98
2022-10-13T08:27:37.053Z,12.35
2022-10-13T08:30:12.200Z,13.98
2022-10-13T08:32:39.025Z,12.77
2022-10-13T08:35:06.185Z,21.05
2022-10-13T08:37:33.047Z,14.02
2022-10-13T08:40:00.259Z,19.35
2022-10-13T08:42:27.595Z,14.38
2022-10-13T08:48:02.609Z,15.60
2022-10-13T08:50:33.802Z,12.50
2022-10-13T08:53:42.239Z,16.67
2022-10-13T08:56:21.823Z,16.05
2022-10-13T08:58:50.868Z,17.75
2022-10-13T09:01:23.981Z,15.80
2022-10-13T09:03:52.454Z,19.48
2022-10-13T09:06:41.051Z,11.00
2022-10-13T09:09:10.201Z,11.82
2022-10-13T09:11:40.265Z,14.00
2022-10-13T09:14:12.920Z,13.95
2022-10-13T09:16:42.947Z,17.83
2022-10-13T09:19:18.750Z,15.80
2022-10-13T09:21:45.603Z,14.93
2022-10-13T09:24:16.925Z,20.17
2022-10-13T09:26:45.096Z,16.83
2022-10-13T09:29:24.801Z,15.63
2022-10-13T09:32:07.044Z,20.42
2022-10-13T09:34:34.392Z,13.20
2022-10-13T09:37:07.075Z,17.63
2022-10-13T09:39:34.063Z,11.25
2022-10-13T09:42:36.410Z,10.02
2022-10-13T09:45:15.404Z,14.57
2022-10-13T09:47:54.711Z,12.82
2022-10-13T09:50:25.671Z,21.27
2022-10-13T09:52:53.071Z,11.50
2022-10-13T09:55:32.444Z,28.02
2022-10-13T09:58:28.572Z,14.80
2022-10-13T10:00:57.615Z,20.00
2022-10-13T10:03:37.176Z,14.20
2022-10-13T10:06:07.733Z,13.20
2022-10-13T10:09:03.730Z,13.48
2022-10-13T10:11:42.573Z,14.20
2022-10-13T10:14:22.980Z,13.68
2022-10-13T10:17:48.761Z,11.10
2022-10-13T10:20:37.987Z,12.85
2022-10-13T10:23:14.457Z,11.30
2022-10-13T10:25:58.619Z,13.40
2022-10-13T10:28:31.576Z,14.55
2022-10-13T10:31:01.335Z,11.43
2022-10-13T10:33:50.034Z,11.40
2022-10-13T10:36:23.595Z,9.60
2022-10-13T10:39:01.669Z,17.52
2022-10-13T10:41:41.297Z,16.77
2022-10-13T10:44:12.778Z,16.98
2022-10-13T10:47:02.785Z,14.45
2022-10-13T10:49:40.047Z,13.23
2022-10-13T10:52:10.401Z,11.02
2022-10-13T10:55:02.348Z,12.10
2022-10-13T10:57:57.824Z,19.25
2022-10-13T11:00:25.133Z,11.95
2022-10-13T11:03:16.522Z,12.80
2022-10-13T11:06:03.699Z,13.18
2022-10-13T11:08:42.748Z,14.80
2022-10-13T11:11:34.925Z,12.25
2022-10-13T11:14:07.351Z,18.95
2022-10-13T11:16:38.939Z,19.60
2022-10-13T11:19:08.915Z,13.80
2022-10-13T11:21:54.041Z,15.48
2022-10-13T11:24:42.655Z,19.67
2022-10-13T11:27:12.344Z,14.43
2022-10-13T11:29:55.252Z,17.88
2022-10-13T11:32:30.680Z,17.80
2022-10-13T11:35:06.621Z,16.55
2022-10-13T11:38:06.028Z,15.88
2022-10-13T11:40:54.501Z,14.60
2022-10-13T11:43:32.504Z,13.75
2022-10-13T11:46:12.452Z,23.08
2022-10-13T11:48:54.308Z,17.33
2022-10-13T11:51:54.889Z,13.82
2022-10-13T11:54:25.307Z,14.57
2022-10-13T11:56:55.099Z,14.63
2022-10-13T11:59:27.932Z,13.70
2022-10-13T12:02:19.474Z,25.77
2022-10-13T12:04:59.723Z,23.83
2022-10-13T12:07:37.007Z,19.00
2022-10-13T12:10:07.597Z,16.02
2022-10-13T12:12:34.493Z,15.05
2022-10-13T12:15:04.379Z,12.13
2022-10-13T12:17:41.318Z,12.98
2022-10-13T12:20:22.859Z,13.00
2022-10-13T12:22:51.784Z,20.35
2022-10-13T12:25:20.761Z,19.42
2022-10-13T12:27:53.909Z,20.13
2022-10-13T12:30:29.985Z,17.70
2022-10-13T12:32:59.433Z,20.52
2022-10-13T12:35:27.886Z,22.55
2022-10-13T12:37:56.580Z,13.55
2022-10-13T12:40:24.396Z,26.05
2022-10-13T12:42:51.528Z,20.88
2022-10-13T12:45:20.803Z,14.65
2022-10-13T12:47:55.357Z,21.58
2022-10-13T12:53:01.991Z,21.02
2022-10-13T12:55:28.928Z,19.15
2022-10-13T12:57:56.237Z,18.27
2022-10-13T13:00:30.007Z,16.50
2022-10-13T13:02:56.814Z,17.70
2022-10-13T13:05:39.647Z,28.00
2022-10-13T13:08:27.035Z,30.40
2022-10-13T13:11:02.033Z,23.67
2022-10-13T13:13:29.783Z,29.33
2022-10-13T13:16:16.692Z,22.05
2022-10-13T13:18:50.843Z,28.67
2022-10-13T13:21:20.004Z,19.30
2022-10-13T13:23:52.832Z,17.92
2022-10-13T13:26:24.496Z,15.75
2022-10-13T13:28:54.227Z,20.35
2022-10-13T13:31:23.808Z,24.85
2022-10-13T13:33:50.764Z,15.27
2022-10-13T13:36:22.903Z,18.98
2022-10-13T13:38:50.400Z,16.17
2022-10-13T13:41:17.701Z,14.32
2022-10-13T13:43:44.533Z,15.93
2022-10-13T13:46:27.757Z,14.07
2022-10-13T13:48:54.597Z,19.35
2022-10-13T13:51:21.519Z,23.80
2022-10-13T13:53:48.348Z,14.00
2022-10-13T13:56:17.582Z,15.35
2022-10-13T13:58:44.997Z,13.20
2022-10-13T14:01:12.340Z,11.02
2022-10-13T14:03:39.207Z,13.23
2022-10-13T14:06:06.464Z,16.85
2022-10-13T14:08:35.065Z,15.38
2022-10-13T14:11:07.731Z,15.25
2022-10-13T14:13:35.056Z,12.05
2022-10-13T14:16:03.146Z,12.73
2022-10-13T14:18:31.019Z,11.63
2022-10-13T14:20:58.240Z,11.55
2022-10-13T14:23:25.069Z,10.63
2022-10-13T14:25:51.859Z,18.45
2022-10-13T14:28:18.775Z,14.40
2022-10-13T14:30:45.609Z,13.80
2022-10-13T14:33:12.432Z,14.88
2022-10-13T14:35:39.216Z,10.57
2022-10-13T14:38:06.086Z,12.50
2022-10-13T14:40:32.891Z,18.90
2022-10-13T14:42:59.678Z,12.40
2022-10-13T14:45:26.438Z,11.45
2022-10-13T14:47:53.700Z,15.27
2022-10-13T14:50:20.532Z,14.25
2022-10-13T14:52:47.317Z,14.40
2022-10-13T14:55:14.492Z,14.05
2022-10-13T14:57:41.328Z,10.60
2022-10-13T15:00:10.501Z,12.13
2022-10-13T15:02:37.348Z,14.95
2022-10-13T15:05:04.551Z,12.82
2022-10-13T15:07:31.413Z,13.90
2022-10-13T15:10:05.446Z,12.32
2022-10-13T15:12:32.736Z,13.25
2022-10-13T15:14:59.560Z,12.02
2022-10-13T15:17:26.398Z,12.75
2022-10-13T15:19:53.316Z,14.10
2022-10-13T15:22:20.253Z,9.95
2022-10-13T15:24:47.256Z,21.05
2022-10-13T15:27:14.098Z,16.65
2022-10-13T15:29:41.010Z,16.27
2022-10-13T15:32:11.040Z,14.02
2022-10-13T15:34:41.047Z,15.30
2022-10-13T15:37:08.025Z,18.00
2022-10-13T15:39:35.155Z,11.13
2022-10-13T15:42:02.613Z,12.55
2022-10-13T15:44:51.136Z,14.48
2022-10-13T15:47:17.968Z,14.23
2022-10-13T15:49:44.841Z,10.80
2022-10-13T15:52:12.033Z,9.75
2022-10-13T15:54:39.021Z,10.07
2022-10-13T15:57:05.796Z,8.73
2022-10-13T15:59:32.592Z,15.98
2022-10-13T16:01:59.384Z,8.65
2022-10-13T16:04:26.254Z,9.57
2022-10-13T16:06:53.024Z,7.03
2022-10-13T16:09:19.913Z,9.57
2022-10-13T16:11:46.718Z,11.80
2022-10-13T16:14:13.729Z,12.23
2022-10-13T16:16:40.496Z,10.30
2022-10-13T16:19:07.350Z,11.65
2022-10-13T16:21:34.204Z,10.65
2022-10-13T16:24:01.067Z,14.05
2022-10-13T16:26:28.230Z,12.35
2022-10-13T16:28:56.003Z,13.90
2022-10-13T16:31:23.040Z,14.48
2022-10-13T16:33:49.858Z,12.25
2022-10-13T16:36:18.698Z,14.10
2022-10-13T16:38:47.148Z,14.50
2022-10-13T16:41:17.371Z,12.95
2022-10-13T16:43:45.326Z,10.90
2022-10-13T16:46:14.543Z,24.05
2022-10-13T16:48:42.577Z,11.77
2022-10-13T16:51:15.236Z,11.50
2022-10-13T16:53:42.579Z,13.50
2022-10-13T16:56:10.177Z,12.88
2022-10-13T16:58:36.943Z,13.63
2022-10-13T17:01:09.158Z,16.60
2022-10-13T17:03:37.112Z,15.88
2022-10-13T17:06:04.729Z,19.17
2022-10-13T17:08:31.764Z,20.40
2022-10-13T17:11:01.939Z,18.85
2022-10-13T17:13:29.841Z,16.92
2022-10-13T17:15:57.797Z,13.50
2022-10-13T17:18:25.662Z,16.40
2022-10-13T17:20:54.118Z,12.93
2022-10-13T17:23:21.865Z,20.67
2022-10-13T17:25:48.943Z,17.58
2022-10-13T17:28:16.363Z,16.45
2022-10-13T17:30:43.470Z,20.50
2022-10-13T17:33:12.567Z,13.30
2022-10-13T17:35:39.855Z,11.50
2022-10-13T17:38:07.472Z,17.10
2022-10-13T17:40:36.102Z,19.83
2022-10-13T17:43:03.285Z,18.13
2022-10-13T17:45:30.716Z,13.55
2022-10-13T17:47:58.827Z,12.45
2022-10-13T17:50:26.361Z,16.35
2022-10-13T17:52:53.705Z,17.50
2022-10-13T17:55:20.483Z,16.48
2022-10-13T17:57:47.265Z,15.45
2022-10-13T18:00:14.791Z,13.93
2022-10-13T18:02:41.621Z,12.52
2022-10-13T18:05:08.600Z,16.42
2022-10-13T18:07:35.376Z,18.80
2022-10-13T18:10:02.287Z,12.70
2022-10-13T18:12:29.071Z,15.05
2022-10-13T18:14:55.870Z,13.25
2022-10-13T18:17:23.152Z,13.63
2022-10-13T18:19:51.003Z,11.70
2022-10-13T18:22:18.144Z,14.95
2022-10-13T18:24:46.160Z,18.42
2022-10-13T18:27:12.957Z,16.73
2022-10-13T18:29:39.767Z,18.77
2022-10-13T18:32:06.548Z,24.02
2022-10-13T18:34:33.401Z,19.65
2022-10-13T18:37:00.184Z,24.02
2022-10-13T18:39:29.029Z,20.95
2022-10-13T18:41:57.106Z,17.65
2022-10-13T18:44:25.351Z,19.23
2022-10-13T18:46:53.768Z,17.50
2022-10-13T18:49:23.166Z,22.58
2022-10-13T18:51:51.828Z,27.77
2022-10-13T18:54:18.609Z,26.65
2022-10-13T18:56:45.410Z,20.92
2022-10-13T18:59:12.326Z,27.42
2022-10-13T19:01:40.794Z,19.08
2022-10-13T19:04:08.694Z,19.33
2022-10-13T19:06:35.626Z,20.88
2022-10-13T19:09:05.831Z,18.48
2022-10-13T19:11:32.882Z,19.27
2022-10-13T19:14:00.856Z,16.77
2022-10-13T19:16:30.114Z,21.00
2022-10-13T19:18:57.341Z,28.85
2022-10-13T19:21:24.729Z,21.08
2022-10-13T19:23:51.942Z,19.60
2022-10-13T19:26:28.337Z,22.90
2022-10-13T19:29:01.181Z,21.55
2022-10-13T19:31:30.036Z,20.27
2022-10-13T19:33:58.043Z,17.67
2022-10-13T19:36:24.852Z,20.27
2022-10-13T19:38:51.929Z,26.77
2022-10-13T19:41:18.833Z,21.50
2022-10-13T19:43:45.696Z,20.30
2022-10-13T19:46:12.926Z,20.42
2022-10-13T19:48:39.905Z,24.45
2022-10-13T19:51:08.071Z,20.77
2022-10-13T19:53:35.588Z,18.67
2022-10-13T19:56:02.892Z,20.15
2022-10-13T19:58:29.742Z,21.50
2022-10-13T20:01:06.068Z,23.05
2022-10-13T20:03:33.030Z,20.30
2022-10-13T20:06:04.246Z,23.13
2022-10-13T20:08:31.070Z,23.52
2022-10-13T20:10:58.007Z,18.15
2022-10-13T20:13:24.805Z,17.92
2022-10-13T20:15:51.567Z,21.23
2022-10-13T20:18:18.341Z,17.58
2022-10-13T20:20:45.219Z,15.45
2022-10-13T20:23:12.056Z,18.77
2022-10-13T20:25:38.918Z,14.93
2022-10-13T20:28:06.644Z,23.40
2022-10-13T20:30:33.869Z,31.05
2022-10-13T20:33:00.802Z,16.85
2022-10-13T20:35:27.886Z,22.55
2022-10-13T20:37:55.157Z,24.38
2022-10-13T20:40:22.236Z,30.60
2022-10-13T20:42:51.174Z,28.90
2022-10-13T20:45:18.863Z,26.58
2022-10-13T20:47:46.880Z,20.13
2022-10-13T20:50:13.891Z,29.35
2022-10-13T20:52:40.728Z,26.98
2022-10-13T20:55:07.836Z,24.92
2022-10-13T20:57:34.621Z,27.30
2022-10-13T21:00:01.782Z,24.88
2022-10-13T21:02:28.551Z,28.92
2022-10-13T21:04:55.348Z,27.70
2022-10-13T21:07:22.747Z,27.30
2022-10-13T21:09:53.659Z,28.25
2022-10-13T21:12:21.479Z,25.40
2022-10-13T21:14:48.660Z,22.20
2022-10-13T21:17:15.452Z,18.75
2022-10-13T21:19:42.222Z,23.48
2022-10-13T21:22:09.211Z,24.50
2022-10-13T21:24:36.029Z,30.77
2022-10-13T21:27:02.920Z,32.35
2022-10-13T21:29:29.879Z,29.08
2022-10-13T21:31:56.659Z,33.88
2022-10-13T21:34:23.502Z,30.48
2022-10-13T21:36:50.317Z,27.13
2022-10-13T21:39:17.347Z,23.92
2022-10-13T21:41:44.204Z,24.40
2022-10-13T21:44:13.803Z,23.83
2022-10-13T21:46:40.771Z,24.45
2022-10-13T21:49:07.545Z,25.05
2022-10-13T21:51:36.722Z,28.05
2022-10-13T21:54:09.502Z,27.83
2022-10-13T21:56:37.205Z,34.58
2022-10-13T21:59:04.379Z,29.13
2022-10-13T22:01:31.201Z,30.27
2022-10-13T22:03:59.780Z,27.75
2022-10-13T22:06:27.776Z,31.60
2022-10-13T22:08:57.085Z,23.20
2022-10-13T22:11:26.590Z,30.20
2022-10-13T22:13:55.337Z,28.95
2022-10-13T22:16:24.451Z,26.58
2022-10-13T22:18:52.634Z,38.50
2022-10-13T22:21:22.260Z,28.20
2022-10-13T22:23:49.177Z,23.23
2022-10-13T22:26:18.249Z,32.88
2022-10-13T22:28:45.196Z,23.40
2022-10-13T22:31:13.051Z,37.40
2022-10-13T22:33:41.932Z,24.70
2022-10-13T22:36:11.813Z,29.23
2022-10-13T22:38:38.723Z,29.60
2022-10-13T22:41:07.407Z,29.73
2022-10-13T22:43:35.444Z,28.52
2022-10-13T22:46:02.748Z,23.85
2022-10-13T22:48:29.541Z,25.52
2022-10-13T22:50:56.625Z,28.67
2022-10-13T22:53:23.701Z,23.73
2022-10-13T22:55:50.490Z,25.83
2022-10-13T22:58:17.328Z,26.95
2022-10-13T23:00:44.091Z,26.98
2022-10-13T23:03:13.748Z,24.95
2022-10-13T23:05:47.877Z,29.15
2022-10-13T23:08:15.866Z,25.52
2022-10-13T23:10:42.955Z,32.03
2022-10-13T23:13:09.718Z,27.58
2022-10-13T23:15:38.633Z,27.77
2022-10-13T23:18:06.118Z,28.67
2022-10-13T23:20:32.923Z,29.05
2022-10-13T23:22:59.667Z,29.40
2022-10-13T23:25:26.481Z,31.75
2022-10-13T23:27:53.244Z,29.50
2022-10-13T23:30:20.043Z,28.08
2022-10-13T23:32:46.996Z,24.40
2022-10-13T23:35:13.851Z,26.08
2022-10-13T23:37:40.589Z,22.73
2022-10-13T23:40:07.986Z,24.67
2022-10-13T23:42:34.768Z,25.13
2022-10-13T23:45:01.753Z,26.27
2022-10-13T23:47:28.480Z,22.65
2022-10-13T23:49:55.459Z,17.70
2022-10-13T23:52:22.238Z,27.45
2022-10-13T23:54:49.027Z,21.45
2022-10-13T23:57:15.823Z,20.58
2022-10-13T23:59:42.719Z,22.88
